createdAt,value
2024-02-19T00:01:00.774Z,11.60
2024-02-19T00:03:47.034Z,10.65
2024-02-19T00:06:14.611Z,11.38
2024-02-19T00:08:42.417Z,11.85
2024-02-19T00:11:09.934Z,10.43
2024-02-19T00:13:38.720Z,10.30
2024-02-19T00:16:06.495Z,9.82
2024-02-19T00:18:34.539Z,10.93
2024-02-19T00:21:02.027Z,10.60
2024-02-19T00:23:30.297Z,10.25
2024-02-19T00:25:57.676Z,10.27
2024-02-19T00:28:25.490Z,9.65
2024-02-19T00:30:53.162Z,10.77
2024-02-19T00:33:21.482Z,9.45
2024-02-19T00:35:49.205Z,9.65
2024-02-19T00:38:16.896Z,9.65
2024-02-19T00:40:44.359Z,9.73
2024-02-19T00:43:12.512Z,10.25
2024-02-19T00:45:39.960Z,10.48
2024-02-19T00:48:07.855Z,10.70
2024-02-19T00:50:35.312Z,9.15
2024-02-19T00:53:02.971Z,11.30
2024-02-19T00:55:30.418Z,10.10
2024-02-19T00:57:58.198Z,10.02
2024-02-19T01:00:27.570Z,10.45
2024-02-19T01:02:55.439Z,11.15
2024-02-19T01:05:23.107Z,10.65
2024-02-19T01:07:50.840Z,11.32
2024-02-19T01:10:18.578Z,12.07
2024-02-19T01:12:46.470Z,10.48
2024-02-19T01:15:13.992Z,10.98
2024-02-19T01:17:41.725Z,12.60
2024-02-19T01:20:10.916Z,11.40
2024-02-19T01:22:40.153Z,10.25
2024-02-19T01:25:07.861Z,11.65
2024-02-19T01:27:35.814Z,10.30
2024-02-19T01:30:03.278Z,10.23
2024-02-19T01:32:31.059Z,12.55
2024-02-19T01:34:58.778Z,11.40
2024-02-19T01:37:26.636Z,10.25
2024-02-19T01:39:54.346Z,10.85
2024-02-19T01:42:22.095Z,10.73
2024-02-19T01:44:49.520Z,11.65
2024-02-19T01:47:19.352Z,10.27
2024-02-19T01:49:46.783Z,10.45
2024-02-19T01:52:14.607Z,11.35
2024-02-19T01:54:42.334Z,10.20
2024-02-19T01:57:10.382Z,10.95
2024-02-19T01:59:39.079Z,9.90
2024-02-19T02:02:07.032Z,11.25
2024-02-19T02:04:35.577Z,10.35
2024-02-19T02:07:04.439Z,11.52
2024-02-19T02:09:31.842Z,10.60
2024-02-19T02:11:59.745Z,10.82
2024-02-19T02:14:27.390Z,12.02
2024-02-19T02:16:55.271Z,9.73
2024-02-19T02:19:23.339Z,10.52
2024-02-19T02:21:51.162Z,10.13
2024-02-19T02:24:20.656Z,10.60
2024-02-19T02:26:48.511Z,11.43
2024-02-19T02:29:16.009Z,10.68
2024-02-19T02:31:43.722Z,12.10
2024-02-19T02:34:11.275Z,11.68
2024-02-19T02:36:41.707Z,10.98
2024-02-19T02:39:09.291Z,11.55
2024-02-19T02:41:37.181Z,12.38
2024-02-19T02:44:04.586Z,11.85
2024-02-19T02:46:32.280Z,12.52
2024-02-19T02:48:59.930Z,12.82
2024-02-19T02:51:27.733Z,11.15
2024-02-19T02:53:55.140Z,12.80
2024-02-19T02:56:23.317Z,12.50
2024-02-19T02:58:51.588Z,11.48
2024-02-19T03:01:21.501Z,12.25
2024-02-19T03:03:49.173Z,10.70
2024-02-19T03:06:17.013Z,11.07
2024-02-19T03:08:45.054Z,11.32
2024-02-19T03:11:13.980Z,11.70
2024-02-19T03:13:41.385Z,11.85
2024-02-19T03:16:09.428Z,10.43
2024-02-19T03:18:37.114Z,12.68
2024-02-19T03:21:09.292Z,12.15
2024-02-19T03:23:36.750Z,12.43
2024-02-19T03:26:05.827Z,11.63
2024-02-19T03:28:34.342Z,10.93
2024-02-19T03:31:02.552Z,14.00
2024-02-19T03:33:30.081Z,11.57
2024-02-19T03:35:57.719Z,13.50
2024-02-19T03:38:25.917Z,11.65
2024-02-19T03:40:53.681Z,11.90
2024-02-19T03:43:21.208Z,10.52
2024-02-19T03:45:51.837Z,11.45
2024-02-19T03:48:19.432Z,11.32
2024-02-19T03:50:47.214Z,11.98
2024-02-19T03:53:14.642Z,13.55
2024-02-19T03:55:42.444Z,13.30
2024-02-19T03:58:09.832Z,13.32
2024-02-19T04:00:37.652Z,13.23
2024-02-19T04:03:05.504Z,13.43
2024-02-19T04:05:33.592Z,13.32
2024-02-19T04:08:01.128Z,13.48
2024-02-19T04:10:28.929Z,12.70
2024-02-19T04:12:56.351Z,14.43
2024-02-19T04:15:23.994Z,14.40
2024-02-19T04:17:51.554Z,16.00
2024-02-19T04:20:19.460Z,14.65
2024-02-19T04:22:46.831Z,17.83
2024-02-19T04:25:15.527Z,15.75
2024-02-19T04:27:43.004Z,17.73
2024-02-19T04:30:11.009Z,17.75
2024-02-19T04:32:38.615Z,16.98
2024-02-19T04:35:07.001Z,16.80
2024-02-19T04:37:34.413Z,16.52
2024-02-19T04:40:04.098Z,15.07
2024-02-19T04:42:31.594Z,19.38
2024-02-19T04:44:59.306Z,15.60
2024-02-19T04:47:26.754Z,15.43
2024-02-19T04:49:54.833Z,15.48
2024-02-19T04:52:22.552Z,15.50
2024-02-19T04:54:50.366Z,15.57
2024-02-19T04:57:17.780Z,15.00
2024-02-19T04:59:45.548Z,14.35
2024-02-19T05:02:13.319Z,18.02
2024-02-19T05:04:41.610Z,14.80
2024-02-19T05:07:09.211Z,14.82
2024-02-19T05:09:37.354Z,16.23
2024-02-19T05:12:05.660Z,15.23
2024-02-19T05:14:33.358Z,15.52
2024-02-19T05:17:01.896Z,15.82
2024-02-19T05:19:29.840Z,15.07
2024-02-19T05:21:57.392Z,15.88
2024-02-19T05:24:25.138Z,15.18
2024-02-19T05:26:52.603Z,16.23
2024-02-19T05:29:21.120Z,14.75
2024-02-19T05:31:48.550Z,14.70
2024-02-19T05:34:17.031Z,15.57
2024-02-19T05:36:44.488Z,16.23
2024-02-19T05:39:12.474Z,16.20
2024-02-19T05:41:40.818Z,15.50
2024-02-19T05:44:08.783Z,16.38
2024-02-19T05:46:36.826Z,16.17
2024-02-19T05:49:04.833Z,15.30
2024-02-19T05:51:32.494Z,16.02
2024-02-19T05:54:00.228Z,18.48
2024-02-19T05:56:30.050Z,18.67
2024-02-19T05:58:57.893Z,19.67
2024-02-19T06:01:25.474Z,18.63
2024-02-19T06:03:53.358Z,17.80
2024-02-19T06:06:21.162Z,20.13
2024-02-19T06:08:48.848Z,20.40
2024-02-19T06:11:16.335Z,19.15
2024-02-19T06:13:44.205Z,20.35
2024-02-19T06:16:11.630Z,21.20
2024-02-19T06:18:39.506Z,19.15
2024-02-19T06:21:06.934Z,20.40
2024-02-19T06:23:34.594Z,18.63
2024-02-19T06:26:02.092Z,23.52
2024-02-19T06:28:29.865Z,20.05
2024-02-19T06:30:57.371Z,21.02
2024-02-19T06:33:25.462Z,20.20
2024-02-19T06:35:52.843Z,19.27
2024-02-19T06:38:20.756Z,19.67
2024-02-19T06:40:48.632Z,19.15
2024-02-19T06:43:17.246Z,19.30
2024-02-19T06:45:44.722Z,20.25
2024-02-19T06:48:12.675Z,19.92
2024-02-19T06:50:40.922Z,18.52
2024-02-19T06:53:08.694Z,19.27
2024-02-19T06:55:36.240Z,18.40
2024-02-19T06:58:04.188Z,19.98
2024-02-19T07:00:31.639Z,18.83
2024-02-19T07:02:59.357Z,19.98
2024-02-19T07:05:27.052Z,19.80
2024-02-19T07:07:54.889Z,18.98
2024-02-19T07:10:22.368Z,18.60
2024-02-19T07:12:50.112Z,20.23
2024-02-19T07:15:17.714Z,17.65
2024-02-19T07:17:46.306Z,19.52
2024-02-19T07:20:14.294Z,21.55
2024-02-19T07:22:42.079Z,23.27
2024-02-19T07:25:16.977Z,19.95
2024-02-19T07:27:49.070Z,20.92
2024-02-19T07:30:17.272Z,20.60
2024-02-19T07:32:45.098Z,18.95
2024-02-19T07:35:12.791Z,18.88
2024-02-19T07:37:40.815Z,21.45
2024-02-19T07:40:09.057Z,20.15
2024-02-19T07:42:38.161Z,23.20
2024-02-19T07:45:09.105Z,18.95
2024-02-19T07:47:37.059Z,21.92
2024-02-19T07:50:05.051Z,20.42
2024-02-19T07:52:32.832Z,18.95
2024-02-19T07:55:00.395Z,20.50
2024-02-19T07:57:28.277Z,24.92
2024-02-19T07:59:55.777Z,19.08
2024-02-19T08:02:23.548Z,21.27
2024-02-19T08:04:51.134Z,22.33
2024-02-19T08:07:19.934Z,22.58
2024-02-19T08:09:47.550Z,20.77
2024-02-19T08:12:15.428Z,23.15
2024-02-19T08:14:42.880Z,21.90
2024-02-19T08:17:10.644Z,24.90
2024-02-19T08:19:38.253Z,23.55
2024-02-19T08:22:06.141Z,25.40
2024-02-19T08:24:33.621Z,23.55
2024-02-19T08:27:01.306Z,23.10
2024-02-19T08:29:30.336Z,26.38
2024-02-19T08:31:58.982Z,24.17
2024-02-19T08:34:27.027Z,26.40
2024-02-19T08:36:55.016Z,23.73
2024-02-19T08:39:22.573Z,30.73
2024-02-19T08:41:50.573Z,24.70
2024-02-19T08:44:17.945Z,25.58
2024-02-19T08:46:45.825Z,27.42
2024-02-19T08:49:13.350Z,25.08
2024-02-19T08:51:41.430Z,25.83
2024-02-19T08:54:09.792Z,29.52
2024-02-19T08:56:37.673Z,29.02
2024-02-19T08:59:05.565Z,30.02
2024-02-19T09:01:33.575Z,29.80
2024-02-19T09:04:01.304Z,27.58
2024-02-19T09:06:29.180Z,29.67
2024-02-19T09:08:56.818Z,32.30
2024-02-19T09:11:24.707Z,31.27
2024-02-19T09:13:52.169Z,31.25
2024-02-19T09:16:20.103Z,29.35
2024-02-19T09:18:47.634Z,31.63
2024-02-19T09:21:15.327Z,33.88
2024-02-19T09:23:42.856Z,33.30
2024-02-19T09:26:14.838Z,28.85
2024-02-19T09:28:42.427Z,28.95
2024-02-19T09:31:10.221Z,25.80
2024-02-19T09:33:37.695Z,26.38
2024-02-19T09:36:06.705Z,25.95
2024-02-19T09:38:34.252Z,28.23
2024-02-19T09:41:05.514Z,31.92
2024-02-19T09:43:33.263Z,27.77
2024-02-19T09:46:05.115Z,26.70
2024-02-19T09:48:34.392Z,26.98
2024-02-19T09:51:04.881Z,26.85
2024-02-19T09:53:35.392Z,30.02
2024-02-19T09:56:03.228Z,28.10
2024-02-19T09:58:32.052Z,25.77
2024-02-19T10:01:00.366Z,30.48
2024-02-19T10:03:27.859Z,28.33
2024-02-19T10:05:55.721Z,28.08
2024-02-19T10:08:25.001Z,28.02
2024-02-19T10:10:57.200Z,26.73
2024-02-19T10:13:25.392Z,27.92
2024-02-19T10:15:53.506Z,30.17
2024-02-19T10:18:22.284Z,27.52
2024-02-19T10:20:54.234Z,28.27
2024-02-19T10:23:24.116Z,26.83
2024-02-19T10:25:54.894Z,29.70
2024-02-19T10:28:23.764Z,28.35
2024-02-19T10:30:52.611Z,27.67
2024-02-19T10:33:21.061Z,27.13
2024-02-19T10:35:50.683Z,28.17
2024-02-19T10:38:18.234Z,31.02
2024-02-19T10:40:46.510Z,35.13
2024-02-19T10:43:15.538Z,28.05
2024-02-19T10:45:43.768Z,28.45
2024-02-19T10:48:11.965Z,30.63
2024-02-19T10:50:39.790Z,31.20
2024-02-19T10:53:08.228Z,32.17
2024-02-19T10:55:45.944Z,31.10
2024-02-19T10:58:26.816Z,32.92
2024-02-19T11:00:59.033Z,29.27
2024-02-19T11:06:00.033Z,29.30
2024-02-19T11:08:29.378Z,33.10
2024-02-19T11:10:58.970Z,26.88
2024-02-19T11:13:26.865Z,29.08
2024-02-19T11:15:54.888Z,34.22
2024-02-19T11:18:23.127Z,30.05
2024-02-19T11:20:51.254Z,30.15
2024-02-19T11:23:20.198Z,33.97
2024-02-19T11:25:48.252Z,30.17
2024-02-19T11:28:15.964Z,34.63
2024-02-19T11:30:43.865Z,34.63
2024-02-19T11:33:12.998Z,31.13
2024-02-19T11:35:44.860Z,32.17
2024-02-19T11:38:12.523Z,27.25
2024-02-19T11:40:40.472Z,29.35
2024-02-19T11:43:08.705Z,29.58
2024-02-19T11:45:38.276Z,31.73
2024-02-19T11:48:06.551Z,27.35
2024-02-19T11:50:34.299Z,33.30
2024-02-19T11:53:04.284Z,32.65
2024-02-19T11:55:34.934Z,33.72
2024-02-19T11:58:03.766Z,34.30
2024-02-19T12:00:32.755Z,33.38
2024-02-19T12:03:01.387Z,34.70
2024-02-19T12:05:29.690Z,32.50
2024-02-19T12:07:57.640Z,33.97
2024-02-19T12:10:25.829Z,33.25
2024-02-19T12:12:53.431Z,31.70
2024-02-19T12:15:21.273Z,32.25
2024-02-19T12:17:49.998Z,30.77
2024-02-19T12:20:19.367Z,30.83
2024-02-19T12:22:47.098Z,31.70
2024-02-19T12:25:14.982Z,31.48
2024-02-19T12:27:42.634Z,31.48
2024-02-19T12:30:10.768Z,28.52
2024-02-19T12:32:38.455Z,30.98
2024-02-19T12:35:07.097Z,30.17
2024-02-19T12:37:35.292Z,26.88
2024-02-19T12:40:04.738Z,30.67
2024-02-19T12:42:32.771Z,28.05
2024-02-19T12:45:00.470Z,26.05
2024-02-19T12:47:28.056Z,25.30
2024-02-19T12:49:56.075Z,25.77
2024-02-19T12:52:28.496Z,24.65
2024-02-19T12:54:56.859Z,25.85
2024-02-19T12:57:24.493Z,23.23
2024-02-19T12:59:52.342Z,24.52
2024-02-19T13:02:20.538Z,22.75
2024-02-19T13:04:48.568Z,21.30
2024-02-19T13:07:16.855Z,20.73
2024-02-19T13:09:45.668Z,20.60
2024-02-19T13:12:15.533Z,21.88
2024-02-19T13:14:45.057Z,20.40
2024-02-19T13:17:16.913Z,19.42
2024-02-19T13:19:49.804Z,18.70
2024-02-19T13:22:17.374Z,18.85
2024-02-19T13:24:45.644Z,19.83
2024-02-19T13:27:13.403Z,19.25
2024-02-19T13:29:41.823Z,18.17
2024-02-19T13:32:09.957Z,19.83
2024-02-19T13:34:39.336Z,17.88
2024-02-19T13:37:08.050Z,18.80
2024-02-19T13:39:36.029Z,17.63
2024-02-19T13:42:05.532Z,19.92
2024-02-19T13:44:33.496Z,17.90
2024-02-19T13:47:00.997Z,19.13
2024-02-19T13:49:29.158Z,20.75
2024-02-19T13:51:56.782Z,17.27
2024-02-19T13:54:24.595Z,17.67
2024-02-19T13:56:53.808Z,17.40
2024-02-19T13:59:21.732Z,18.30
2024-02-19T14:01:49.425Z,17.65
2024-02-19T14:04:17.842Z,19.02
2024-02-19T14:06:45.558Z,24.00
2024-02-19T14:09:13.255Z,22.27
2024-02-19T14:11:41.057Z,22.42
2024-02-19T14:14:09.010Z,20.15
2024-02-19T14:16:36.606Z,19.13
2024-02-19T14:19:04.700Z,18.50
2024-02-19T14:21:33.327Z,17.50
2024-02-19T14:24:01.661Z,18.05
2024-02-19T14:26:30.332Z,17.35
2024-02-19T14:28:59.098Z,16.80
2024-02-19T14:31:26.759Z,17.08
2024-02-19T14:33:54.752Z,18.08
2024-02-19T14:36:25.525Z,18.17
2024-02-19T14:38:54.168Z,16.38
2024-02-19T14:41:22.806Z,17.38
2024-02-19T14:43:50.771Z,17.33
2024-02-19T14:46:19.471Z,17.85
2024-02-19T14:48:47.632Z,16.17
2024-02-19T14:51:19.584Z,16.63
2024-02-19T14:53:49.185Z,17.50
2024-02-19T14:56:16.643Z,17.23
2024-02-19T14:58:44.372Z,17.00
2024-02-19T15:01:12.629Z,15.80
2024-02-19T15:03:40.337Z,17.77
2024-02-19T15:06:08.126Z,16.05
2024-02-19T15:08:35.965Z,16.58
2024-02-19T15:11:03.615Z,15.02
2024-02-19T15:13:31.770Z,16.27
2024-02-19T15:15:59.325Z,15.52
2024-02-19T15:18:27.448Z,17.20
2024-02-19T15:20:55.241Z,16.90
2024-02-19T15:23:23.136Z,16.58
2024-02-19T15:25:50.818Z,16.65
2024-02-19T15:28:19.111Z,16.70
2024-02-19T15:30:47.792Z,17.85
2024-02-19T15:33:15.919Z,17.52
2024-02-19T15:35:45.244Z,17.38
2024-02-19T15:38:13.965Z,18.45
2024-02-19T15:40:41.519Z,16.92
2024-02-19T15:43:09.308Z,18.58
2024-02-19T15:45:37.260Z,17.77
2024-02-19T15:48:05.882Z,19.00
2024-02-19T15:50:33.868Z,18.27
2024-02-19T15:53:06.314Z,18.80
2024-02-19T15:55:35.339Z,18.27
2024-02-19T15:58:03.164Z,18.23
2024-02-19T16:00:32.543Z,18.05
2024-02-19T16:03:00.214Z,18.48
2024-02-19T16:05:28.008Z,18.98
2024-02-19T16:07:55.839Z,21.30
2024-02-19T16:10:23.681Z,20.95
2024-02-19T16:12:52.324Z,19.80
2024-02-19T16:15:21.485Z,21.33
2024-02-19T16:17:49.556Z,19.55
2024-02-19T16:20:17.144Z,20.48
2024-02-19T16:22:48.232Z,21.50
2024-02-19T16:25:15.816Z,19.17
2024-02-19T16:27:43.864Z,20.35
2024-02-19T16:30:14.206Z,20.00
2024-02-19T16:32:42.174Z,18.08
2024-02-19T16:35:11.472Z,19.77
2024-02-19T16:37:39.785Z,18.48
2024-02-19T16:40:08.190Z,19.02
2024-02-19T16:42:39.240Z,17.30
2024-02-19T16:45:07.350Z,18.08
2024-02-19T16:47:35.168Z,18.75
2024-02-19T16:50:02.793Z,17.95
2024-02-19T16:52:30.815Z,18.45
2024-02-19T16:54:58.276Z,17.70
2024-02-19T16:57:27.114Z,17.52
2024-02-19T16:59:54.443Z,17.95
2024-02-19T17:02:23.158Z,16.42
2024-02-19T17:04:52.880Z,18.95
2024-02-19T17:07:21.198Z,16.33
2024-02-19T17:09:49.227Z,16.50
2024-02-19T17:12:16.950Z,17.27
2024-02-19T17:14:46.137Z,16.75
2024-02-19T17:17:13.756Z,14.82
2024-02-19T17:19:41.376Z,15.70
2024-02-19T17:22:09.437Z,12.82
2024-02-19T17:24:40.729Z,13.63
2024-02-19T17:27:09.068Z,11.10
2024-02-19T17:29:36.771Z,8.55
2024-02-19T17:32:05.277Z,8.88
2024-02-19T17:34:33.022Z,6.97
2024-02-19T17:37:01.551Z,6.47
2024-02-19T17:39:28.999Z,4.88
2024-02-19T17:41:57.166Z,4.78
2024-02-19T17:44:25.149Z,3.63
2024-02-19T17:46:55.616Z,3.03
2024-02-19T17:49:23.441Z,2.85
2024-02-19T17:51:53.649Z,2.22
2024-02-19T17:54:21.753Z,2.53
2024-02-19T17:56:49.673Z,2.65
2024-02-19T17:59:17.315Z,1.73
2024-02-19T18:01:45.179Z,2.00
2024-02-19T18:04:17.404Z,1.98
2024-02-19T18:06:45.958Z,2.13
2024-02-19T18:09:13.416Z,2.65
2024-02-19T18:11:41.398Z,2.40
2024-02-19T18:14:09.168Z,2.45
2024-02-19T18:16:39.921Z,2.88
2024-02-19T18:19:08.022Z,3.17
2024-02-19T18:21:36.629Z,2.67
2024-02-19T18:24:09.322Z,2.92
2024-02-19T18:26:37.076Z,3.58
2024-02-19T18:29:04.778Z,3.60
2024-02-19T18:31:33.177Z,3.65
2024-02-19T18:34:01.869Z,3.25
2024-02-19T18:36:29.916Z,3.13
2024-02-19T18:38:57.230Z,3.00
2024-02-19T18:41:25.469Z,2.90
2024-02-19T18:43:52.970Z,3.33
2024-02-19T18:46:21.441Z,3.08
2024-02-19T18:48:49.031Z,2.80
2024-02-19T18:51:16.861Z,2.65
2024-02-19T18:53:44.282Z,2.55
2024-02-19T18:56:12.038Z,2.80
2024-02-19T18:58:39.630Z,2.90
2024-02-19T19:01:08.486Z,2.80
2024-02-19T19:03:36.056Z,2.97
2024-02-19T19:06:04.745Z,3.10
2024-02-19T19:08:32.591Z,2.78
2024-02-19T19:11:00.461Z,3.00
2024-02-19T19:13:29.497Z,2.38
2024-02-19T19:15:57.489Z,2.80
2024-02-19T19:18:25.701Z,3.08
2024-02-19T19:20:53.789Z,2.58
2024-02-19T19:23:21.336Z,3.28
2024-02-19T19:25:49.504Z,2.45
2024-02-19T19:28:17.699Z,2.20
2024-02-19T19:30:46.541Z,2.00
2024-02-19T19:33:15.714Z,2.13
2024-02-19T19:35:49.074Z,2.20
2024-02-19T19:38:17.470Z,1.75
2024-02-19T19:40:45.506Z,1.90
2024-02-19T19:43:13.113Z,1.60
2024-02-19T19:45:41.124Z,1.30
2024-02-19T19:48:09.064Z,1.50
2024-02-19T19:50:37.139Z,1.30
2024-02-19T19:53:05.004Z,1.40
2024-02-19T19:55:32.748Z,1.20
2024-02-19T19:58:00.373Z,1.40
2024-02-19T20:00:28.688Z,1.10
2024-02-19T20:02:58.317Z,1.10
2024-02-19T20:05:26.166Z,1.52
2024-02-19T20:07:53.923Z,1.23
2024-02-19T20:10:21.816Z,1.98
2024-02-19T20:12:50.914Z,0.98
2024-02-19T20:15:18.923Z,1.10
2024-02-19T20:17:46.567Z,0.77
2024-02-19T20:20:14.533Z,1.17
2024-02-19T20:22:42.158Z,1.08
2024-02-19T20:25:10.446Z,0.80
2024-02-19T20:27:38.589Z,0.80
2024-02-19T20:30:08.058Z,1.10
2024-02-19T20:32:35.699Z,1.00
2024-02-19T20:35:03.643Z,1.17
2024-02-19T20:37:31.187Z,1.13
2024-02-19T20:40:02.921Z,1.20
2024-02-19T20:42:30.616Z,1.00
2024-02-19T20:44:59.060Z,1.20
2024-02-19T20:47:26.801Z,1.58
2024-02-19T20:49:55.590Z,1.10
2024-02-19T20:52:23.484Z,1.50
2024-02-19T20:54:53.420Z,1.55
2024-02-19T20:57:21.365Z,1.50
2024-02-19T20:59:49.369Z,1.33
2024-02-19T21:02:16.806Z,1.58
2024-02-19T21:04:44.829Z,1.98
2024-02-19T21:07:12.454Z,2.05
2024-02-19T21:09:40.446Z,2.10
2024-02-19T21:12:08.637Z,2.03
2024-02-19T21:14:36.579Z,2.17
2024-02-19T21:17:04.264Z,2.00
2024-02-19T21:19:33.802Z,2.13
2024-02-19T21:22:01.690Z,2.05
2024-02-19T21:24:29.480Z,2.05
2024-02-19T21:26:59.143Z,2.72
2024-02-19T21:29:30.019Z,2.22
2024-02-19T21:31:58.212Z,2.40
2024-02-19T21:34:26.149Z,2.60
2024-02-19T21:36:57.842Z,2.78
2024-02-19T21:39:26.532Z,2.72
2024-02-19T21:41:54.053Z,2.90
2024-02-19T21:44:23.185Z,2.65
2024-02-19T21:46:50.784Z,2.88
2024-02-19T21:49:20.822Z,2.58
2024-02-19T21:51:49.339Z,2.85
2024-02-19T21:54:17.305Z,3.40
2024-02-19T21:56:44.826Z,3.50
2024-02-19T21:59:12.556Z,3.85
2024-02-19T22:01:40.225Z,3.47
2024-02-19T22:04:09.463Z,4.05
2024-02-19T22:06:37.066Z,4.47
2024-02-19T22:09:04.750Z,4.68
2024-02-19T22:11:32.317Z,4.82
2024-02-19T22:14:00.889Z,5.10
2024-02-19T22:16:28.414Z,5.43
2024-02-19T22:18:56.170Z,7.00
2024-02-19T22:21:23.710Z,6.32
2024-02-19T22:23:51.404Z,7.38
2024-02-19T22:26:18.867Z,7.47
2024-02-19T22:28:46.865Z,7.60
2024-02-19T22:31:14.358Z,7.90
2024-02-19T22:33:42.144Z,7.00
2024-02-19T22:36:09.896Z,7.60
2024-02-19T22:38:37.615Z,7.45
2024-02-19T22:41:05.124Z,7.82
2024-02-19T22:43:32.842Z,7.70
2024-02-19T22:46:00.278Z,7.55
2024-02-19T22:48:29.461Z,7.50
2024-02-19T22:50:57.031Z,7.95
2024-02-19T22:53:24.773Z,7.82
2024-02-19T22:55:52.419Z,7.32
2024-02-19T22:58:31.078Z,8.02
2024-02-19T23:01:03.231Z,8.07
2024-02-19T23:03:31.275Z,6.97
2024-02-19T23:05:58.883Z,6.25
2024-02-19T23:08:26.763Z,6.45
2024-02-19T23:10:55.951Z,5.90
2024-02-19T23:13:24.054Z,6.35
2024-02-19T23:15:51.623Z,6.15
2024-02-19T23:18:19.583Z,6.50
2024-02-19T23:20:47.121Z,6.00
2024-02-19T23:23:14.741Z,6.07
2024-02-19T23:25:42.501Z,6.57
2024-02-19T23:28:10.248Z,6.25
2024-02-19T23:30:37.764Z,5.13
2024-02-19T23:33:05.888Z,5.00
2024-02-19T23:35:34.399Z,6.18
2024-02-19T23:38:02.024Z,5.72
2024-02-19T23:40:29.758Z,5.35
2024-02-19T23:42:57.606Z,4.80
2024-02-19T23:45:25.082Z,4.55
2024-02-19T23:47:53.189Z,4.97
2024-02-19T23:50:20.900Z,5.57
2024-02-19T23:52:49.055Z,5.18
2024-02-19T23:55:18.310Z,4.97
2024-02-19T23:57:46.284Z,4.38
